Time;durP1;ratioP1;P1;durP2;ratioP2;P2;SDS_P1;SDS_P2;PMS_P1;PMS_P2;Temp;Humidity;BMP_temperature;BMP_pressure;BME280_temperature;BME280_humidity;BME280_pressure;Samples;Min_cycle;Max_cycle;Signal;HPM_P1;HPM_P2
2022/11/13 00:00:05;;;;;;;7.05;6.80;;;1.30;99.90;;;;;;5033688;28;20394;-74
2022/11/13 00:02:33;;;;;;;7.00;6.80;;;1.20;99.90;;;;;;5033647;28;20105;-75
2022/11/13 00:04:58;;;;;;;5.88;5.68;;;1.20;99.90;;;;;;5033400;28;20045;-75
2022/11/13 00:07:24;;;;;;;6.65;6.45;;;1.10;99.90;;;;;;5025092;28;20072;-75
2022/11/13 00:09:50;;;;;;;6.72;6.53;;;1.20;99.90;;;;;;5012395;28;20018;-74
2022/11/13 00:12:15;;;;;;;6.88;6.65;;;1.30;99.90;;;;;;5012548;28;20022;-74
2022/11/13 00:14:41;;;;;;;6.20;6.00;;;1.20;99.90;;;;;;5013398;28;20065;-74
2022/11/13 00:17:06;;;;;;;9.05;8.48;;;1.10;99.90;;;;;;5031994;28;20340;-73
2022/11/13 00:19:32;;;;;;;6.35;6.15;;;1.10;99.90;;;;;;5033392;28;20029;-73
2022/11/13 00:21:59;;;;;;;7.30;7.00;;;1.40;99.90;;;;;;5032270;28;20025;-74
2022/11/13 00:24:24;;;;;;;6.85;6.65;;;1.40;99.90;;;;;;5033230;28;20030;-74
2022/11/13 00:26:50;;;;;;;6.65;6.45;;;1.40;99.90;;;;;;5033106;28;20040;-72
2022/11/13 00:29:16;;;;;;;6.60;6.40;;;1.40;99.90;;;;;;5033258;28;20468;-72
2022/11/13 00:31:41;;;;;;;6.72;6.53;;;1.40;99.90;;;;;;5033109;28;20434;-75
2022/11/13 00:34:09;;;;;;;7.40;7.10;;;1.30;99.90;;;;;;5033080;28;20483;-75
2022/11/13 00:36:35;;;;;;;6.10;5.90;;;1.40;99.90;;;;;;5031747;28;20030;-75
2022/11/13 00:39:00;;;;;;;7.70;7.40;;;1.30;99.90;;;;;;5032897;28;20048;-75
2022/11/13 00:41:26;;;;;;;8.40;8.10;;;1.30;99.90;;;;;;5033125;28;20029;-75
2022/11/13 00:43:51;;;;;;;6.72;6.53;;;1.30;99.90;;;;;;5031371;28;20025;-75
2022/11/13 00:46:17;;;;;;;8.70;8.40;;;1.20;99.90;;;;;;5032813;28;20468;-75
2022/11/13 00:48:43;;;;;;;5.85;5.65;;;1.10;99.90;;;;;;5032763;28;20025;-74
2022/11/13 00:51:08;;;;;;;6.25;6.05;;;1.10;99.90;;;;;;5031647;28;20028;-74
2022/11/13 00:53:34;;;;;;;7.25;7.05;;;1.00;99.90;;;;;;5031366;28;20076;-74
2022/11/13 00:55:59;;;;;;;6.15;5.95;;;1.00;99.90;;;;;;5031068;28;20048;-74
2022/11/13 00:58:25;;;;;;;6.25;6.05;;;1.00;99.90;;;;;;5032385;28;20022;-74
2022/11/13 01:00:51;;;;;;;6.25;6.05;;;0.90;99.90;;;;;;5031233;28;20025;-73
2022/11/13 01:03:17;;;;;;;6.38;6.18;;;1.00;99.90;;;;;;5035908;28;20430;-73
2022/11/13 01:05:45;;;;;;;6.43;6.22;;;1.00;99.90;;;;;;5032437;28;20395;-72
2022/11/13 01:08:12;;;;;;;6.60;6.40;;;1.00;99.90;;;;;;5017874;28;20022;-73
2022/11/13 01:10:41;;;;;;;5.38;5.18;;;1.00;99.90;;;;;;5012777;28;20361;-74
2022/11/13 01:13:07;;;;;;;8.90;8.38;;;0.60;99.90;;;;;;5012570;28;20400;-73
2022/11/13 01:15:32;;;;;;;5.70;5.50;;;0.60;99.90;;;;;;5011377;28;20032;-73
2022/11/13 01:17:58;;;;;;;6.63;6.43;;;0.60;99.90;;;;;;5012218;28;20026;-73
2022/11/13 01:20:25;;;;;;;7.50;7.20;;;0.60;99.90;;;;;;5011191;28;20034;-73
2022/11/13 01:22:50;;;;;;;6.20;6.00;;;0.40;99.90;;;;;;5011283;28;20028;-75
2022/11/13 01:25:17;;;;;;;6.10;5.90;;;0.50;99.90;;;;;;5012273;28;20440;-74
2022/11/13 01:27:42;;;;;;;6.40;6.20;;;0.50;99.90;;;;;;5012108;28;20557;-75
2022/11/13 01:30:08;;;;;;;5.70;5.50;;;0.40;99.90;;;;;;5011112;28;20061;-74
2022/11/13 01:32:34;;;;;;;6.43;6.22;;;0.40;99.90;;;;;;5013980;28;20096;-75
2022/11/13 01:34:59;;;;;;;5.78;5.57;;;0.30;99.90;;;;;;5031903;28;20038;-75
2022/11/13 01:37:25;;;;;;;7.30;7.03;;;0.40;99.90;;;;;;5030362;28;20022;-75
2022/11/13 01:39:50;;;;;;;5.80;5.60;;;0.50;99.90;;;;;;5030656;28;20035;-75
2022/11/13 01:42:16;;;;;;;24.92;22.35;;;0.50;99.90;;;;;;5030547;28;20053;-75
2022/11/13 01:44:52;;;;;;;6.35;6.15;;;0.50;99.90;;;;;;5032095;28;20471;-74
2022/11/13 01:47:20;;;;;;;5.65;5.45;;;0.60;99.90;;;;;;5031590;28;20495;-75
2022/11/13 01:49:48;;;;;;;6.80;6.32;;;0.60;99.90;;;;;;5031860;28;20021;-75
2022/11/13 01:52:27;;;;;;;6.03;5.82;;;0.40;99.90;;;;;;5030403;28;20017;-74
2022/11/13 01:54:56;;;;;;;6.28;6.07;;;0.50;99.90;;;;;;5030191;28;20096;-75
2022/11/13 01:57:22;;;;;;;6.80;6.55;;;0.60;99.90;;;;;;5030201;28;20510;-75
2022/11/13 01:59:53;;;;;;;5.18;4.97;;;0.50;99.90;;;;;;5030381;28;20036;-75
2022/11/13 02:02:19;;;;;;;6.90;6.68;;;0.10;99.90;;;;;;5035191;28;20414;-75
2022/11/13 02:04:45;;;;;;;5.93;5.72;;;0.10;99.90;;;;;;5031362;28;20037;-75
2022/11/13 02:07:14;;;;;;;6.05;5.85;;;0.10;99.90;;;;;;5030027;28;20087;-75
2022/11/13 02:09:43;;;;;;;5.95;5.75;;;0.20;99.90;;;;;;5030234;28;20025;-75
2022/11/13 02:12:15;;;;;;;6.20;6.00;;;0.20;99.90;;;;;;5031597;28;20026;-75
2022/11/13 02:14:44;;;;;;;6.45;6.25;;;0.20;99.90;;;;;;5032059;28;20391;-74
2022/11/13 02:17:16;;;;;;;7.05;6.75;;;0.30;99.90;;;;;;5034201;28;20031;-74
2022/11/13 02:19:47;;;;;;;6.65;6.45;;;0.20;99.90;;;;;;5035702;28;20427;-75
2022/11/13 02:22:27;;;;;;;8.57;7.53;;;0.20;99.90;;;;;;5035570;28;20479;-74
2022/11/13 02:24:54;;;;;;;6.05;5.85;;;0.10;99.90;;;;;;5035353;28;20037;-74
2022/11/13 02:27:28;;;;;;;5.68;5.47;;;0.10;99.90;;;;;;5035353;28;20045;-75
2022/11/13 02:29:53;;;;;;;5.78;5.57;;;0.20;99.90;;;;;;5035510;28;20025;-75
2022/11/13 02:32:19;;;;;;;5.75;5.55;;;0.30;99.90;;;;;;5035416;28;20392;-75
2022/11/13 02:34:44;;;;;;;5.88;5.68;;;0.10;99.90;;;;;;5035235;28;20422;-75
2022/11/13 02:37:10;;;;;;;7.20;6.85;;;0.00;99.90;;;;;;5035074;28;20108;-74
2022/11/13 02:39:35;;;;;;;5.40;5.20;;;0.00;99.90;;;;;;5020730;28;20029;-74
2022/11/13 02:42:01;;;;;;;5.60;5.40;;;0.10;99.90;;;;;;5035587;28;20512;-74
2022/11/13 02:44:27;;;;;;;5.50;5.30;;;0.10;99.90;;;;;;5036618;28;20029;-74
2022/11/13 02:46:52;;;;;;;6.38;6.07;;;0.00;99.90;;;;;;5054292;28;20048;-75
2022/11/13 02:49:18;;;;;;;5.32;5.13;;;0.00;99.90;;;;;;5040743;28;20025;-75
2022/11/13 02:51:43;;;;;;;6.78;6.53;;;0.00;99.90;;;;;;5040498;28;20037;-75
2022/11/13 02:54:09;;;;;;;6.20;6.00;;;0.10;99.90;;;;;;5035314;28;20033;-76
2022/11/13 02:56:34;;;;;;;5.97;5.78;;;0.10;99.90;;;;;;5036750;28;20025;-75
2022/11/13 02:59:00;;;;;;;6.30;6.00;;;0.10;99.90;;;;;;5047699;28;20025;-75
2022/11/13 03:01:25;;;;;;;5.68;5.47;;;0.00;99.90;;;;;;5035976;28;20037;-74
2022/11/13 03:03:51;;;;;;;4.35;4.25;;;0.10;99.90;;;;;;5045687;28;20155;-75
2022/11/13 03:06:16;;;;;;;5.10;4.90;;;0.00;99.90;;;;;;5039589;28;20475;-75
2022/11/13 03:08:42;;;;;;;4.78;4.60;;;0.00;99.90;;;;;;5037067;28;20037;-75
2022/11/13 03:11:09;;;;;;;8.88;8.40;;;0.10;99.90;;;;;;5036083;28;20032;-74
2022/11/13 03:13:36;;;;;;;7.45;6.70;;;0.10;99.90;;;;;;5035079;28;20029;-75
2022/11/13 03:16:10;;;;;;;5.03;4.82;;;0.10;99.90;;;;;;5034750;28;20040;-75
2022/11/13 03:18:36;;;;;;;5.93;5.72;;;0.10;99.90;;;;;;5034436;28;20025;-74
2022/11/13 03:21:20;;;;;;;5.95;5.75;;;0.00;99.90;;;;;;5034874;28;20017;-75
2022/11/13 03:23:45;;;;;;;5.15;4.95;;;-0.10;99.90;;;;;;5033428;28;20514;-75
2022/11/13 03:26:13;;;;;;;7.07;6.78;;;0.00;99.90;;;;;;5033465;28;20025;-75
2022/11/13 03:28:39;;;;;;;5.05;4.85;;;0.00;99.90;;;;;;5033161;28;20029;-75
2022/11/13 03:31:04;;;;;;;5.13;4.93;;;0.00;99.90;;;;;;5031137;28;20091;-74
2022/11/13 03:33:30;;;;;;;4.65;4.55;;;0.10;99.90;;;;;;5046887;28;20022;-75
2022/11/13 03:35:56;;;;;;;5.20;5.00;;;0.20;99.90;;;;;;5015080;28;20037;-74
2022/11/13 03:38:22;;;;;;;4.85;4.70;;;0.30;99.90;;;;;;5013355;28;20030;-75
2022/11/13 03:40:47;;;;;;;7.47;7.18;;;0.30;99.90;;;;;;5014809;28;20041;-75
2022/11/13 03:43:13;;;;;;;5.25;5.05;;;0.30;99.90;;;;;;5014701;28;20038;-75
2022/11/13 03:45:39;;;;;;;4.38;4.28;;;0.20;99.90;;;;;;5014978;28;20524;-74
2022/11/13 03:48:04;;;;;;;5.25;5.05;;;0.00;99.90;;;;;;5014619;28;20022;-75
2022/11/13 03:50:30;;;;;;;4.85;4.70;;;-0.10;99.90;;;;;;5014560;28;20026;-75
2022/11/13 03:52:55;;;;;;;6.75;6.30;;;-0.10;99.90;;;;;;5046435;28;20056;-76
2022/11/13 03:55:21;;;;;;;4.90;4.70;;;-0.20;99.90;;;;;;5017141;28;20118;-75
2022/11/13 03:57:47;;;;;;;5.95;5.75;;;-0.20;99.90;;;;;;5034070;28;20033;-75
2022/11/13 04:00:13;;;;;;;5.20;5.00;;;-0.20;99.90;;;;;;5034312;28;20021;-75
2022/11/13 04:02:39;;;;;;;5.43;5.22;;;-0.10;99.90;;;;;;5037699;28;20427;-74
2022/11/13 04:05:07;;;;;;;4.68;4.55;;;0.00;99.90;;;;;;5030157;28;20427;-74
2022/11/13 04:07:32;;;;;;;6.78;6.28;;;0.00;99.90;;;;;;5045594;28;20037;-74
2022/11/13 04:09:58;;;;;;;5.45;5.25;;;0.00;99.90;;;;;;5045809;28;20038;-74
2022/11/13 04:12:24;;;;;;;6.25;6.05;;;-0.20;99.90;;;;;;5014039;28;20484;-75
2022/11/13 04:14:49;;;;;;;5.45;5.25;;;-0.20;99.90;;;;;;5014065;28;20030;-75
2022/11/13 04:17:15;;;;;;;4.53;4.43;;;-0.10;99.90;;;;;;5048816;28;20068;-74
2022/11/13 04:19:40;;;;;;;5.38;5.18;;;-0.20;99.90;;;;;;5033413;28;20025;-75
2022/11/13 04:22:06;;;;;;;4.93;4.72;;;-0.30;99.90;;;;;;5033762;28;20090;-75
2022/11/13 04:24:31;;;;;;;5.30;5.10;;;-0.20;99.90;;;;;;5033556;28;20029;-75
2022/11/13 04:26:57;;;;;;;5.32;5.13;;;-0.20;99.90;;;;;;5032037;28;20026;-75
2022/11/13 04:29:22;;;;;;;5.63;5.43;;;-0.20;99.90;;;;;;5031944;28;20479;-75
2022/11/13 04:31:48;;;;;;;5.07;4.88;;;-0.20;99.90;;;;;;5032130;28;20017;-76
2022/11/13 04:34:13;;;;;;;7.03;6.70;;;-0.20;99.90;;;;;;5017568;28;20029;-76
2022/11/13 04:36:39;;;;;;;5.57;5.38;;;-0.20;99.90;;;;;;5045386;28;20030;-76
2022/11/13 04:39:05;;;;;;;5.03;4.82;;;-0.20;99.90;;;;;;5045611;28;20048;-75
2022/11/13 04:44:15;;;;;;;7.70;7.40;;;-0.30;99.90;;;;;;5013429;28;20056;-74
2022/11/13 04:46:40;;;;;;;5.32;5.13;;;-0.20;99.90;;;;;;5013705;28;20061;-75
2022/11/13 04:49:06;;;;;;;4.78;4.65;;;-0.10;99.90;;;;;;5013163;28;20026;-75
2022/11/13 04:51:31;;;;;;;4.43;4.32;;;-0.10;99.90;;;;;;5013398;28;20077;-73
2022/11/13 04:53:57;;;;;;;5.05;4.85;;;0.00;99.90;;;;;;5044597;28;20502;-72
2022/11/13 04:56:22;;;;;;;4.55;4.45;;;0.00;99.90;;;;;;5048117;28;20674;-72
2022/11/13 04:58:48;;;;;;;5.13;4.93;;;-0.20;99.90;;;;;;5032550;28;20033;-73
2022/11/13 05:01:13;;;;;;;4.53;4.43;;;-0.10;99.90;;;;;;5033556;28;20391;-73
2022/11/13 05:03:39;;;;;;;4.63;4.53;;;-0.10;99.90;;;;;;5035190;28;20072;-73
2022/11/13 05:06:07;;;;;;;5.75;5.55;;;-0.10;99.90;;;;;;5032627;28;20028;-73
2022/11/13 05:08:33;;;;;;;6.78;6.43;;;-0.10;99.90;;;;;;5031090;28;20025;-74
2022/11/13 05:10:59;;;;;;;5.25;5.05;;;-0.30;99.90;;;;;;5032715;28;20021;-74
2022/11/13 05:13:25;;;;;;;5.80;5.60;;;-0.30;99.90;;;;;;5031384;28;20044;-74
2022/11/13 05:15:58;;;;;;;5.15;4.95;;;-0.20;99.90;;;;;;5031149;28;20238;-74
2022/11/13 05:18:24;;;;;;;4.28;4.18;;;-0.20;99.90;;;;;;5032535;28;20033;-75
2022/11/13 05:20:50;;;;;;;5.38;5.18;;;-0.10;99.90;;;;;;5031229;28;20036;-74
2022/11/13 05:23:15;;;;;;;5.75;5.55;;;0.00;99.90;;;;;;5032342;28;20030;-75
2022/11/13 05:25:41;;;;;;;5.50;5.30;;;-0.10;99.90;;;;;;5032389;28;20035;-74
2022/11/13 05:28:06;;;;;;;5.97;5.78;;;-0.10;99.90;;;;;;5032628;28;20025;-74
2022/11/13 05:30:32;;;;;;;5.25;5.05;;;-0.10;99.90;;;;;;5032172;28;20032;-73
2022/11/13 05:32:57;;;;;;;4.57;4.47;;;-0.20;99.90;;;;;;5031951;28;20022;-74
2022/11/13 05:35:23;;;;;;;4.93;4.72;;;-0.30;99.90;;;;;;5032183;28;20030;-74
2022/11/13 05:37:48;;;;;;;4.95;4.75;;;-0.30;99.90;;;;;;5031862;28;20021;-75
2022/11/13 05:40:14;;;;;;;5.20;5.00;;;-0.20;99.90;;;;;;5032303;28;20155;-74
2022/11/13 05:42:40;;;;;;;6.93;6.63;;;-0.20;99.90;;;;;;5030833;28;20075;-74
2022/11/13 05:45:06;;;;;;;4.95;4.75;;;-0.20;99.90;;;;;;5030757;28;20104;-74
2022/11/13 05:47:32;;;;;;;5.25;5.05;;;-0.30;99.90;;;;;;5032084;28;20105;-74
2022/11/13 05:49:57;;;;;;;6.15;5.95;;;-0.40;99.90;;;;;;5031503;28;20034;-75
2022/11/13 05:52:23;;;;;;;5.40;5.20;;;-0.30;99.90;;;;;;5026841;28;20057;-75
2022/11/13 05:54:49;;;;;;;5.10;4.90;;;-0.40;99.90;;;;;;5022622;28;20574;-75
2022/11/13 05:57:14;;;;;;;5.07;4.88;;;-0.50;99.90;;;;;;5026005;28;20434;-73
2022/11/13 05:59:40;;;;;;;5.43;5.22;;;-0.50;99.90;;;;;;5023674;28;20109;-73
2022/11/13 06:02:05;;;;;;;10.50;9.88;;;-0.50;99.90;;;;;;5035692;28;20034;-73
2022/11/13 06:04:31;;;;;;;5.32;5.13;;;-0.50;99.90;;;;;;5030271;28;20041;-74
2022/11/13 06:06:56;;;;;;;6.47;6.20;;;-0.50;99.90;;;;;;5030230;28;20116;-73
2022/11/13 06:09:22;;;;;;;5.75;5.55;;;-0.50;99.90;;;;;;5031993;28;20032;-73
2022/11/13 06:11:47;;;;;;;5.38;5.18;;;-0.40;99.90;;;;;;5030708;28;20545;-73
2022/11/13 06:14:13;;;;;;;7.20;6.90;;;-0.40;99.90;;;;;;5031759;28;20033;-74
2022/11/13 06:16:39;;;;;;;6.57;6.38;;;-0.40;99.90;;;;;;5031741;28;20515;-73
2022/11/13 06:19:07;;;;;;;5.50;5.30;;;-0.40;99.90;;;;;;5031857;28;20025;-73
2022/11/13 06:21:35;;;;;;;5.72;5.53;;;-0.50;99.90;;;;;;5031917;28;20064;-73
2022/11/13 06:24:01;;;;;;;5.15;4.95;;;-0.50;99.90;;;;;;5034338;28;20029;-73
2022/11/13 06:26:29;;;;;;;5.75;5.55;;;-0.50;99.90;;;;;;5018832;28;20506;-74
2022/11/13 06:28:54;;;;;;;5.25;5.05;;;-0.50;99.90;;;;;;5019141;28;20022;-73
2022/11/13 06:31:26;;;;;;;4.70;4.57;;;-0.60;99.90;;;;;;5023958;28;20494;-73
2022/11/13 06:33:52;;;;;;;5.45;5.25;;;-0.60;99.90;;;;;;5024325;28;20026;-73
2022/11/13 06:36:26;;;;;;;4.93;4.72;;;-0.60;99.90;;;;;;5024487;28;20032;-73
2022/11/13 06:38:52;;;;;;;13.98;9.82;;;-0.60;99.90;;;;;;5012335;28;20488;-75
2022/11/13 06:41:24;;;;;;;4.35;4.25;;;-0.50;99.90;;;;;;5025102;28;20026;-74
2022/11/13 06:43:50;;;;;;;4.43;4.32;;;-0.60;99.90;;;;;;5025755;28;20021;-74
2022/11/13 06:46:21;;;;;;;6.15;5.90;;;-0.60;99.90;;;;;;5019496;28;20107;-73
2022/11/13 06:48:47;;;;;;;4.43;4.32;;;-0.60;99.90;;;;;;5030315;28;20426;-74
2022/11/13 06:51:16;;;;;;;4.63;4.53;;;-0.70;99.90;;;;;;5022853;28;20034;-74
2022/11/13 06:53:41;;;;;;;5.15;4.97;;;-0.70;99.90;;;;;;5023737;28;20431;-74
2022/11/13 06:56:08;;;;;;;5.22;5.03;;;-0.70;99.90;;;;;;5012181;28;20033;-74
2022/11/13 06:58:34;;;;;;;4.55;4.45;;;-0.70;99.90;;;;;;5024887;28;20453;-74
2022/11/13 07:01:18;;;;;;;4.70;4.60;;;-0.80;99.90;;;;;;5021251;28;20163;-74
2022/11/13 07:03:43;;;;;;;5.10;4.90;;;-0.70;99.90;;;;;;5020573;28;20044;-74
2022/11/13 07:06:12;;;;;;;4.45;4.35;;;-0.70;99.90;;;;;;5024104;28;20030;-76
2022/11/13 07:08:40;;;;;;;4.13;4.03;;;-0.60;99.90;;;;;;5034823;28;20104;-74
2022/11/13 07:11:06;;;;;;;4.95;4.75;;;-0.60;99.90;;;;;;5035716;28;20061;-75
2022/11/13 07:13:32;;;;;;;7.10;6.70;;;-0.40;99.90;;;;;;5019051;28;20022;-74
2022/11/13 07:16:02;;;;;;;5.38;5.18;;;-0.30;99.90;;;;;;5018044;28;20480;-74
2022/11/13 07:18:29;;;;;;;4.25;4.15;;;-0.20;99.90;;;;;;5016783;28;20085;-74
2022/11/13 07:20:55;;;;;;;4.85;4.65;;;-0.30;99.90;;;;;;5015082;28;20025;-74
2022/11/13 07:23:20;;;;;;;4.95;4.75;;;-0.20;99.90;;;;;;5021434;28;20025;-74
2022/11/13 07:25:46;;;;;;;5.80;5.55;;;-0.10;99.90;;;;;;5047036;28;20080;-74
2022/11/13 07:28:11;;;;;;;6.40;6.10;;;-0.10;99.90;;;;;;5030849;28;20492;-74
2022/11/13 07:30:37;;;;;;;4.65;4.55;;;-0.10;99.90;;;;;;5046930;28;20026;-75
2022/11/13 07:33:03;;;;;;;6.13;5.93;;;0.00;99.90;;;;;;5028069;28;20026;-74
2022/11/13 07:35:29;;;;;;;4.90;4.72;;;-0.30;99.90;;;;;;5014835;28;20021;-74
2022/11/13 07:37:55;;;;;;;4.78;4.57;;;-0.10;99.90;;;;;;5027929;28;20040;-74
2022/11/13 07:40:21;;;;;;;4.65;4.55;;;0.00;99.90;;;;;;5014419;28;20097;-74
2022/11/13 07:42:47;;;;;;;5.03;4.82;;;0.00;99.90;;;;;;5033040;28;20100;-74
2022/11/13 07:45:12;;;;;;;5.07;4.88;;;-0.10;99.90;;;;;;5022078;28;20060;-74
2022/11/13 07:47:38;;;;;;;5.22;5.03;;;-0.10;99.90;;;;;;5019667;28;20542;-75
2022/11/13 07:50:04;;;;;;;4.60;4.50;;;0.00;99.90;;;;;;5022297;28;20387;-74
2022/11/13 07:52:29;;;;;;;17.35;14.13;;;0.00;99.90;;;;;;5032914;28;20022;-74
2022/11/13 07:54:55;;;;;;;21.05;8.65;;;0.00;99.90;;;;;;5034212;28;20173;-74
2022/11/13 07:57:21;;;;;;;6.53;6.28;;;0.00;99.90;;;;;;5033593;28;20033;-74
2022/11/13 07:59:47;;;;;;;8.77;8.27;;;0.10;99.90;;;;;;5034132;28;20029;-74
2022/11/13 08:02:14;;;;;;;5.57;5.38;;;0.10;99.90;;;;;;5036569;28;20022;-74
2022/11/13 08:04:40;;;;;;;6.07;5.88;;;0.20;99.90;;;;;;5033835;28;20036;-74
2022/11/13 08:07:06;;;;;;;18.80;17.27;;;0.20;99.90;;;;;;5033510;28;20021;-74
2022/11/13 08:09:32;;;;;;;12.65;11.98;;;0.40;99.90;;;;;;5033674;28;20067;-75
2022/11/13 08:11:57;;;;;;;10.88;9.93;;;0.40;99.90;;;;;;5027730;28;20026;-74
2022/11/13 08:14:23;;;;;;;6.45;6.25;;;0.50;99.90;;;;;;5030307;28;20032;-74
2022/11/13 08:16:48;;;;;;;7.28;6.85;;;0.60;99.90;;;;;;5035264;28;20044;-74
2022/11/13 08:19:14;;;;;;;6.68;6.43;;;0.60;99.90;;;;;;5033612;28;20029;-73
2022/11/13 08:21:39;;;;;;;5.20;5.00;;;0.60;99.90;;;;;;5033279;28;20033;-74
2022/11/13 08:24:05;;;;;;;6.68;6.38;;;0.80;99.90;;;;;;5031995;28;20156;-74
2022/11/13 08:26:31;;;;;;;5.65;5.45;;;0.90;99.90;;;;;;5031719;28;20024;-74
2022/11/13 08:28:56;;;;;;;8.90;8.60;;;1.00;99.90;;;;;;5029952;28;20058;-74
2022/11/13 08:31:22;;;;;;;5.10;4.90;;;1.20;99.90;;;;;;5037944;28;20054;-74
2022/11/13 08:33:47;;;;;;;6.72;6.47;;;1.30;99.90;;;;;;5043297;28;20071;-73
2022/11/13 08:36:13;;;;;;;4.93;4.72;;;1.40;99.90;;;;;;5033838;28;20084;-74
2022/11/13 08:38:38;;;;;;;5.50;5.30;;;1.40;99.90;;;;;;5033105;28;20029;-73
2022/11/13 08:41:05;;;;;;;5.50;5.30;;;1.40;99.90;;;;;;5032794;28;20040;-74
2022/11/13 08:43:30;;;;;;;5.63;5.43;;;1.50;99.90;;;;;;5033093;28;20087;-74
2022/11/13 08:45:56;;;;;;;5.80;5.60;;;1.60;99.90;;;;;;5032728;28;20029;-74
2022/11/13 08:48:23;;;;;;;5.35;5.15;;;1.70;99.90;;;;;;5036034;28;20028;-74
2022/11/13 08:50:53;;;;;;;7.97;7.65;;;1.80;99.90;;;;;;5044466;28;20109;-72
2022/11/13 08:53:19;;;;;;;5.78;5.57;;;1.90;99.90;;;;;;5039616;28;20025;-73
2022/11/13 08:55:44;;;;;;;5.47;5.28;;;2.00;99.90;;;;;;5035758;28;20115;-75
2022/11/13 08:58:10;;;;;;;7.70;7.30;;;2.00;99.90;;;;;;5039228;28;20075;-75
2022/11/13 09:00:35;;;;;;;6.60;6.40;;;2.00;99.90;;;;;;5039067;28;20049;-76
2022/11/13 09:03:01;;;;;;;7.05;6.78;;;2.10;99.90;;;;;;5033170;28;20049;-75
2022/11/13 09:05:27;;;;;;;7.82;7.53;;;2.10;99.90;;;;;;5040849;28;20034;-75
2022/11/13 09:07:57;;;;;;;7.80;7.40;;;2.20;99.90;;;;;;5039795;28;20080;-76
2022/11/13 09:10:22;;;;;;;8.50;8.20;;;2.20;99.90;;;;;;5031316;28;20045;-75
2022/11/13 09:12:48;;;;;;;7.93;7.63;;;2.10;99.90;;;;;;5039277;28;20561;-75
2022/11/13 09:15:14;;;;;;;7.97;7.68;;;2.00;99.90;;;;;;5041844;28;20029;-75
2022/11/13 09:17:39;;;;;;;7.90;7.60;;;2.10;99.90;;;;;;5030949;28;20021;-75
2022/11/13 09:20:08;;;;;;;8.20;7.90;;;2.20;99.90;;;;;;5033534;28;20034;-75
2022/11/13 09:22:34;;;;;;;7.93;7.63;;;2.30;99.90;;;;;;5035138;28;20380;-75
2022/11/13 09:24:59;;;;;;;7.95;7.65;;;2.50;99.90;;;;;;5032525;28;20059;-75
2022/11/13 09:27:25;;;;;;;8.32;8.02;;;2.70;99.90;;;;;;5031923;28;20033;-75
2022/11/13 09:29:51;;;;;;;7.70;7.40;;;2.90;99.90;;;;;;5032163;28;20033;-75
2022/11/13 09:32:16;;;;;;;8.38;8.07;;;3.10;99.90;;;;;;5032108;28;20029;-75
2022/11/13 09:34:42;;;;;;;7.78;7.50;;;3.20;99.90;;;;;;5031781;28;20033;-75
2022/11/13 09:37:07;;;;;;;8.23;7.93;;;3.20;99.90;;;;;;5030494;28;20471;-75
2022/11/13 09:39:33;;;;;;;8.98;8.68;;;3.30;99.90;;;;;;5031818;28;20029;-75
2022/11/13 09:42:10;;;;;;;8.73;8.43;;;3.40;99.90;;;;;;5031830;28;20084;-75
2022/11/13 09:44:43;;;;;;;8.88;8.57;;;3.50;99.90;;;;;;5030554;28;20029;-75
2022/11/13 09:47:23;;;;;;;9.45;9.15;;;3.60;99.90;;;;;;5030399;28;20036;-75
2022/11/13 09:50:03;;;;;;;9.15;8.85;;;3.70;99.90;;;;;;5031817;28;20070;-75
2022/11/13 09:52:34;;;;;;;10.27;9.93;;;3.70;99.90;;;;;;5040905;28;20029;-75
2022/11/13 09:54:59;;;;;;;9.90;9.60;;;3.90;99.90;;;;;;5039823;28;20521;-75
2022/11/13 09:57:28;;;;;;;9.45;9.15;;;4.00;99.90;;;;;;5031778;28;20033;-75
2022/11/13 10:00:09;;;;;;;10.40;10.00;;;4.00;99.90;;;;;;5030369;28;20128;-75
2022/11/13 10:03:02;;;;;;;11.55;10.75;;;4.20;99.90;;;;;;5034849;28;20033;-75
2022/11/13 10:05:56;;;;;;;10.80;10.40;;;4.40;99.90;;;;;;5030087;28;20022;-75
2022/11/13 10:08:30;;;;;;;10.32;9.93;;;4.60;99.90;;;;;;5031360;28;20109;-75
2022/11/13 10:11:14;;;;;;;9.55;9.25;;;4.50;99.90;;;;;;5031367;28;20056;-75
2022/11/13 10:13:48;;;;;;;12.95;12.38;;;4.70;99.90;;;;;;5030091;28;20028;-75
2022/11/13 10:16:34;;;;;;;10.30;9.80;;;4.90;99.90;;;;;;5031826;28;20084;-76
2022/11/13 10:19:10;;;;;;;12.48;11.75;;;5.00;99.90;;;;;;5029939;28;20036;-75
2022/11/13 10:21:43;;;;;;;11.30;10.90;;;5.20;99.90;;;;;;5030321;28;20037;-75
2022/11/13 10:24:21;;;;;;;11.27;10.88;;;5.20;99.90;;;;;;5031290;28;20423;-75
2022/11/13 10:26:46;;;;;;;11.77;11.38;;;5.20;99.90;;;;;;5030101;28;20040;-75
2022/11/13 10:29:15;;;;;;;12.05;11.65;;;5.20;99.90;;;;;;5030206;28;20487;-75
2022/11/13 10:31:49;;;;;;;14.05;13.55;;;5.30;99.90;;;;;;5031667;28;20452;-75
2022/11/13 10:34:16;;;;;;;14.57;14.07;;;5.50;99.90;;;;;;5027230;28;20057;-75
2022/11/13 10:37:07;;;;;;;12.90;12.40;;;6.20;99.90;;;;;;5047280;28;20032;-75
2022/11/13 10:39:43;;;;;;;14.32;13.77;;;6.20;99.90;;;;;;5037119;28;20037;-76
2022/11/13 10:42:21;;;;;;;12.13;11.73;;;6.50;99.90;;;;;;5046180;28;20031;-75
2022/11/13 10:44:55;;;;;;;14.13;13.63;;;6.30;99.90;;;;;;5035211;28;20079;-75
2022/11/13 10:47:23;;;;;;;14.35;13.85;;;6.40;99.90;;;;;;5021395;28;20029;-75
2022/11/13 10:49:49;;;;;;;12.90;12.40;;;6.50;99.90;;;;;;5023473;28;20036;-75
2022/11/13 10:52:21;;;;;;;13.45;12.95;;;6.90;99.90;;;;;;5033030;28;20112;-75
2022/11/13 10:54:48;;;;;;;14.85;14.25;;;7.10;99.90;;;;;;5036811;28;20039;-75
2022/11/13 10:57:34;;;;;;;12.95;12.45;;;7.40;99.90;;;;;;5049949;28;20026;-75
2022/11/13 11:00:00;;;;;;;13.70;13.17;;;7.70;99.90;;;;;;5046555;28;20078;-75
2022/11/13 11:02:27;;;;;;;14.50;13.90;;;7.90;99.90;;;;;;5026006;28;20351;-75
2022/11/13 11:05:15;;;;;;;14.80;14.20;;;7.80;99.90;;;;;;5051058;28;20705;-76
2022/11/13 11:07:41;;;;;;;14.32;13.73;;;8.10;99.90;;;;;;5034639;28;20040;-75
2022/11/13 11:10:19;;;;;;;15.50;14.90;;;8.10;99.90;;;;;;5031128;28;20097;-76
2022/11/13 11:12:54;;;;;;;15.73;15.00;;;8.10;99.90;;;;;;5027419;28;20092;-76
2022/11/13 11:15:38;;;;;;;16.90;16.13;;;8.00;99.90;;;;;;5043008;28;20033;-76
2022/11/13 11:18:17;;;;;;;15.00;14.43;;;8.20;99.90;;;;;;5038544;28;20514;-76
2022/11/13 11:21:06;;;;;;;17.00;16.40;;;8.10;99.90;;;;;;5041421;28;20033;-76
2022/11/13 11:23:38;;;;;;;17.80;17.20;;;8.20;99.90;;;;;;5037030;28;20029;-75
2022/11/13 11:26:25;;;;;;;18.58;17.88;;;8.30;99.90;;;;;;5039513;28;20044;-76
2022/11/13 11:29:17;;;;;;;19.17;17.73;;;8.40;99.90;;;;;;5034409;28;20029;-76
2022/11/13 11:32:09;;;;;;;21.63;20.83;;;8.50;99.90;;;;;;5022548;28;20036;-76
2022/11/13 11:34:47;;;;;;;16.67;16.08;;;8.60;99.90;;;;;;5032195;28;20515;-76
2022/11/13 11:37:14;;;;;;;19.30;18.58;;;8.80;99.90;;;;;;5034269;28;20487;-76
2022/11/13 11:40:01;;;;;;;19.25;18.55;;;8.90;99.90;;;;;;5023603;28;20112;-76
2022/11/13 11:42:54;;;;;;;19.65;18.85;;;8.90;99.90;;;;;;5042472;28;20057;-76
2022/11/13 11:45:32;;;;;;;16.92;16.33;;;9.00;99.90;;;;;;5033963;28;20033;-75
2022/11/13 11:48:00;;;;;;;18.42;17.73;;;9.20;99.90;;;;;;5019895;28;20018;-76
2022/11/13 11:50:53;;;;;;;14.88;14.38;;;9.40;99.90;;;;;;5020619;28;20053;-77
2022/11/13 11:53:24;;;;;;;16.08;15.05;;;9.30;99.90;;;;;;5034103;28;20040;-76
2022/11/13 11:56:09;;;;;;;13.50;13.00;;;9.50;99.90;;;;;;5033930;28;20060;-75
2022/11/13 11:59:18;;;;;;;12.15;11.73;;;9.70;99.90;;;;;;5032825;28;20025;-75
2022/11/13 12:02:03;;;;;;;12.73;12.23;;;9.90;99.90;;;;;;5021592;28;20029;-74
2022/11/13 12:04:50;;;;;;;12.48;12.00;;;9.90;99.90;;;;;;5021892;28;20034;-74
2022/11/13 12:07:34;;;;;;;13.10;12.60;;;10.00;99.90;;;;;;5020869;28;20029;-75
2022/11/13 12:10:18;;;;;;;9.85;9.35;;;10.20;99.90;;;;;;5016573;28;20079;-76
2022/11/13 12:13:02;;;;;;;6.55;6.35;;;10.50;99.90;;;;;;5014228;28;20427;-75
2022/11/13 12:15:46;;;;;;;7.78;7.47;;;10.60;99.90;;;;;;5033372;28;20025;-76
2022/11/13 12:18:28;;;;;;;8.30;8.00;;;10.60;99.90;;;;;;5028864;28;20026;-77
2022/11/13 12:21:17;;;;;;;8.38;7.97;;;10.60;99.90;;;;;;5032568;28;20036;-76
2022/11/13 12:24:11;;;;;;;7.63;7.20;;;10.70;99.90;;;;;;5022380;28;20028;-76
2022/11/13 12:26:49;;;;;;;7.75;7.45;;;10.70;99.90;;;;;;5033611;28;20029;-76
2022/11/13 12:29:52;;;;;;;6.63;6.43;;;10.90;99.90;;;;;;5021153;28;20423;-76
2022/11/13 12:32:40;;;;;;;6.28;6.07;;;10.90;99.90;;;;;;5032183;28;20028;-76
2022/11/13 12:35:19;;;;;;;6.00;5.80;;;11.50;99.90;;;;;;5022476;28;20032;-75
2022/11/13 12:38:01;;;;;;;4.00;3.90;;;11.40;99.90;;;;;;5034505;28;20060;-75
2022/11/13 12:40:59;;;;;;;3.42;3.33;;;11.90;99.90;;;;;;5032619;28;20752;-75
2022/11/13 12:43:33;;;;;;;4.28;3.92;;;11.80;99.90;;;;;;5044874;28;20040;-75
2022/11/13 12:46:08;;;;;;;4.60;4.40;;;11.60;99.90;;;;;;5040629;28;20126;-74
2022/11/13 12:48:35;;;;;;;1.70;1.67;;;11.60;99.90;;;;;;5031223;28;20076;-75
2022/11/13 12:51:12;;;;;;;2.47;2.38;;;11.90;99.90;;;;;;5032770;28;20044;-75
2022/11/13 12:53:51;;;;;;;2.00;2.00;;;11.80;99.90;;;;;;5032719;28;20018;-75
2022/11/13 12:56:22;;;;;;;2.40;2.30;;;12.10;99.90;;;;;;5032735;28;20033;-75
2022/11/13 12:58:54;;;;;;;2.15;2.10;;;11.90;99.90;;;;;;5032056;28;20510;-75
2022/11/13 13:01:21;;;;;;;2.60;2.50;;;11.90;99.90;;;;;;5034289;28;20037;-73
2022/11/13 13:04:36;;;;;;;2.00;2.00;;;12.00;99.90;;;;;;5033617;28;20049;-75